»·PEaware :: NCR8822 KLAX-KSFO

NCR8822 :: KLAX-KSFO

FLIGHT INFORMATION

Flight Status: Arrived
Operator: Unknown
More flights by this operator :: More flights under this callsign
Pilot: Ruben R. (12247)
Aircraft: BOEING 757-200
(B752)
More flights by this aircraft type
Origin: KLAX Los Angeles Intl
United States
Destination: KSFO San Francisco Intl
United States
More flights between these airports :: More routes between these airports
Route: SUMMR1 STOKD SERFR SERFR3
File this flight plan on PilotEdge
Remarks: twitch.tv / mach3Legend
Altitude:
(Current/Filed)
34,000ft
Speed:
(Current/Filed)
450kts
Departed: 09-Oct-18 06:00 PM
Arrived: 09-Oct-18 07:01 PM
Distance/Time
Traveled:
293nm/1:01
Distance/Time
To Go:
Arrived

Flight Plot

Page will automatically refresh every two minutes.

Flight plan parsing failed; only flown route is shown


Map Options




Map Legend


Flown Route
Filed Route
Departure Airport
Arrival Airport
Navaid (VOR, NDB)
Fix

Horizontal Profiles

Position Reports

Time Latitude Longitude Heading Altitude Ground
Speed
09-Oct-18 17:33 33.943194 -118.429859 83 114ft 0kts
09-Oct-18 17:34 33.943194 -118.429859 83 114ft 0kts
09-Oct-18 17:35 33.943194 -118.429859 83 114ft 0kts
09-Oct-18 17:36 33.943194 -118.429859 83 114ft 0kts
09-Oct-18 17:37 33.943194 -118.429859 83 114ft 0kts
09-Oct-18 17:38 33.943194 -118.429859 83 114ft 0kts
09-Oct-18 17:39 33.943194 -118.429859 83 114ft 0kts
09-Oct-18 17:40 33.943194 -118.429859 83 114ft 0kts
09-Oct-18 17:41 33.943194 -118.429859 83 114ft 0kts
09-Oct-18 17:42 33.943194 -118.429859 83 114ft 0kts
09-Oct-18 17:43 33.943194 -118.429859 83 114ft 0kts
09-Oct-18 17:44 33.943194 -118.429859 83 114ft 0kts
09-Oct-18 17:45 33.943193 -118.429859 83 114ft 0kts
09-Oct-18 17:46 33.943150 -118.430282 78 114ft 2kts
09-Oct-18 17:47 33.942729 -118.430750 8 114ft 2kts
09-Oct-18 17:48 33.942543 -118.430746 352 114ft 0kts
09-Oct-18 17:49 33.942544 -118.430746 352 114ft 0kts
09-Oct-18 17:50 33.942544 -118.430746 352 114ft 0kts
09-Oct-18 17:51 33.942544 -118.430746 352 114ft 0kts
09-Oct-18 17:52 33.942544 -118.430746 352 114ft 0kts
09-Oct-18 17:53 33.942546 -118.430746 352 114ft 0kts
09-Oct-18 17:54 33.943979 -118.430987 352 114ft 9kts
09-Oct-18 17:55 33.946122 -118.429456 84 114ft 15kts
09-Oct-18 17:56 33.946658 -118.424126 83 114ft 17kts
09-Oct-18 17:57 33.947119 -118.419468 82 114ft 13kts
09-Oct-18 17:58 33.947910 -118.412987 81 114ft 27kts
09-Oct-18 17:59 33.948736 -118.405096 83 114ft 22kts
09-Oct-18 18:00 33.949320 -118.399647 73 114ft 9kts
09-Oct-18 18:01 33.950366 -118.399904 263 114ft 1kts
09-Oct-18 18:02 33.947637 -118.426198 263 316ft 164kts
09-Oct-18 18:03 33.943299 -118.485599 265 1609ft 221kts
09-Oct-18 18:04 33.939345 -118.563738 265 3861ft 255kts
09-Oct-18 18:05 33.932618 -118.649918 265 4997ft 262kts
09-Oct-18 18:06 33.925981 -118.735111 264 7130ft 272kts
09-Oct-18 18:07 33.911559 -118.825241 264 9672ft 283kts
09-Oct-18 18:08 33.912998 -118.930968 270 10540ft 360kts
09-Oct-18 18:09 33.931971 -119.046750 301 13022ft 360kts
09-Oct-18 18:10 33.984892 -119.149972 302 13270ft 364kts
09-Oct-18 18:11 34.057446 -119.231497 324 13276ft 366kts
09-Oct-18 18:12 34.133289 -119.310769 317 15875ft 377kts
09-Oct-18 18:13 34.209215 -119.394610 317 18119ft 391kts
09-Oct-18 18:14 34.289342 -119.482781 317 20228ft 403kts
09-Oct-18 18:15 34.372895 -119.574915 318 22161ft 415kts
09-Oct-18 18:16 34.457978 -119.668998 317 22884ft 418kts
09-Oct-18 18:17 34.543974 -119.764365 317 23968ft 426kts
09-Oct-18 18:18 34.631852 -119.862108 317 25523ft 437kts
09-Oct-18 18:19 34.721954 -119.962633 317 26922ft 447kts
09-Oct-18 18:20 34.812569 -120.064043 317 28183ft 456kts
09-Oct-18 18:21 34.906604 -120.169139 318 29326ft 465kts
09-Oct-18 18:22 35.002373 -120.275566 317 30366ft 473kts
09-Oct-18 18:23 35.098676 -120.384173 317 31512ft 474kts
09-Oct-18 18:24 35.191586 -120.489476 316 32576ft 474kts
09-Oct-18 18:25 35.282490 -120.592872 316 33371ft 476kts
09-Oct-18 18:26 35.375040 -120.698504 316 33885ft 475kts
09-Oct-18 18:27 35.469161 -120.806252 317 33862ft 475kts
09-Oct-18 18:28 35.571868 -120.903513 322 33859ft 475kts
09-Oct-18 18:29 35.676437 -121.000826 322 33859ft 475kts
09-Oct-18 18:30 35.780821 -121.098230 322 33859ft 475kts
09-Oct-18 18:31 35.884917 -121.195684 322 33859ft 475kts
09-Oct-18 18:32 35.970086 -121.275643 322 33459ft 440kts
09-Oct-18 18:33 36.084139 -121.380450 327 27849ft 442kts
09-Oct-18 18:34 36.171321 -121.447793 327 25951ft 430kts
09-Oct-18 18:35 36.266861 -121.522414 327 23908ft 417kts
09-Oct-18 18:36 36.362291 -121.597802 325 22069ft 407kts
09-Oct-18 18:37 36.439633 -121.659920 326 20654ft 399kts
09-Oct-18 18:38 36.544891 -121.743030 326 19888ft 380kts
09-Oct-18 18:39 36.618424 -121.801070 326 19886ft 379kts
09-Oct-18 18:40 36.706858 -121.871224 326 19005ft 377kts
09-Oct-18 18:41 36.804403 -121.912190 346 17968ft 372kts
09-Oct-18 18:42 36.903636 -121.940113 346 16982ft 366kts
09-Oct-18 18:43 37.000289 -121.973405 342 16015ft 360kts
09-Oct-18 18:44 37.095315 -122.010606 342 14439ft 351kts
09-Oct-18 18:45 37.181366 -122.044313 342 12855ft 342kts
09-Oct-18 18:46 37.265630 -122.077385 342 12316ft 298kts
09-Oct-18 18:47 37.341081 -122.107140 342 9857ft 284kts
09-Oct-18 18:48 37.409379 -122.131898 344 7377ft 273kts
09-Oct-18 18:49 37.471212 -122.153147 344 5893ft 254kts
09-Oct-18 18:50 37.529127 -122.186034 299 5366ft 206kts
09-Oct-18 18:51 37.555058 -122.243032 297 4886ft 173kts
09-Oct-18 18:52 37.552033 -122.285216 182 4042ft 169kts
09-Oct-18 18:53 37.505972 -122.258724 153 4007ft 196kts
09-Oct-18 18:54 37.459543 -122.228002 153 3998ft 193kts
09-Oct-18 18:55 37.419353 -122.188376 92 4027ft 196kts
09-Oct-18 18:56 37.461107 -122.138354 16 3992ft 195kts
09-Oct-18 18:57 37.499647 -122.159758 323 3996ft 192kts
09-Oct-18 18:58 37.540930 -122.197328 323 3965ft 163kts
09-Oct-18 18:59 37.565503 -122.239755 290 2892ft 158kts
09-Oct-18 19:00 37.585571 -122.296814 297 1462ft 156kts
09-Oct-18 19:01 37.601923 -122.335689 297 451ft 151kts
09-Oct-18 19:02 37.619734 -122.377558 299 24ft 88kts
09-Oct-18 19:03 37.622319 -122.385974 208 24ft 2kts
09-Oct-18 19:04 37.621334 -122.385942 124 24ft 5kts
09-Oct-18 19:05 37.620535 -122.384170 118 23ft 5kts
09-Oct-18 19:06 37.619816 -122.382370 117 23ft 6kts
09-Oct-18 19:07 37.618795 -122.380164 135 24ft 8kts
09-Oct-18 19:08 37.616134 -122.379961 207 24ft 12kts
09-Oct-18 19:09 37.612992 -122.382062 207 24ft 9kts
09-Oct-18 19:10 37.611138 -122.383279 208 24ft 8kts
09-Oct-18 19:11 37.610978 -122.385507 297 24ft 9kts
09-Oct-18 19:12 37.610930 -122.388570 209 24ft 11kts
09-Oct-18 19:13 37.611012 -122.390624 34 24ft 5kts
09-Oct-18 19:14 37.611243 -122.390372 44 24ft 0kts
09-Oct-18 19:15 37.611243 -122.390372 44 24ft 0kts
09-Oct-18 19:16 37.611243 -122.390372 44 24ft 0kts
09-Oct-18 19:17 37.611243 -122.390372 44 24ft 0kts

Navigation Log

Ident Type
Flight plan parsing failed, navigation log unavailable